sensor_id;sensor_type;location;lat;lon;timestamp;temperature;humidity
15409;DHT22;7803;48.130;13.788;2022-07-23T11:00:21;26.90;97.50
15409;DHT22;7803;48.130;13.788;2022-07-23T11:03:30;26.90;97.60
15409;DHT22;7803;48.130;13.788;2022-07-23T11:07:07;26.90;97.70
15409;DHT22;7803;48.130;13.788;2022-07-23T11:10:33;26.90;97.80
15409;DHT22;7803;48.130;13.788;2022-07-23T11:13:46;26.90;98.00
15409;DHT22;7803;48.130;13.788;2022-07-23T11:16:55;27.10;98.10
15409;DHT22;7803;48.130;13.788;2022-07-23T11:20:16;26.90;98.00
15409;DHT22;7803;48.130;13.788;2022-07-23T11:23:18;27.00;98.00
15409;DHT22;7803;48.130;13.788;2022-07-23T11:26:42;26.90;97.90
15409;DHT22;7803;48.130;13.788;2022-07-23T11:29:46;26.90;97.90
15409;DHT22;7803;48.130;13.788;2022-07-23T11:32:50;26.90;97.90
15409;DHT22;7803;48.130;13.788;2022-07-23T11:36:01;26.90;97.90
15409;DHT22;7803;48.130;13.788;2022-07-23T11:39:04;27.00;97.80
15409;DHT22;7803;48.130;13.788;2022-07-23T11:42:07;27.00;97.80
15409;DHT22;7803;48.130;13.788;2022-07-23T11:45:09;26.90;97.80
15409;DHT22;7803;48.130;13.788;2022-07-23T11:48:19;26.90;97.70
15409;DHT22;7803;48.130;13.788;2022-07-23T11:51:25;26.90;97.90
15409;DHT22;7803;48.130;13.788;2022-07-23T11:54:27;26.90;98.10
15409;DHT22;7803;48.130;13.788;2022-07-23T11:57:31;27.00;98.00
15409;DHT22;7803;48.130;13.788;2022-07-23T12:00:33;27.00;98.00
15409;DHT22;7803;48.130;13.788;2022-07-23T12:03:36;27.00;98.00
15409;DHT22;7803;48.130;13.788;2022-07-23T12:06:49;26.90;98.00
15409;DHT22;7803;48.130;13.788;2022-07-23T12:09:51;27.00;98.00
15409;DHT22;7803;48.130;13.788;2022-07-23T12:12:55;27.00;98.00
15409;DHT22;7803;48.130;13.788;2022-07-23T12:15:57;27.00;98.00
15409;DHT22;7803;48.130;13.788;2022-07-23T12:19:01;27.00;98.00
15409;DHT22;7803;48.130;13.788;2022-07-23T12:22:04;27.00;97.90
15409;DHT22;7803;48.130;13.788;2022-07-23T12:25:08;26.90;97.90
15409;DHT22;7803;48.130;13.788;2022-07-23T12:28:13;27.00;97.90
15409;DHT22;7803;48.130;13.788;2022-07-23T12:31:15;26.90;97.90
15409;DHT22;7803;48.130;13.788;2022-07-23T12:34:18;27.00;97.90
15409;DHT22;7803;48.130;13.788;2022-07-23T12:37:31;27.00;98.00
15409;DHT22;7803;48.130;13.788;2022-07-23T12:40:36;27.00;98.00
15409;DHT22;7803;48.130;13.788;2022-07-23T12:43:39;27.00;98.10
15409;DHT22;7803;48.130;13.788;2022-07-23T12:46:42;26.90;98.10
15409;DHT22;7803;48.130;13.788;2022-07-23T12:49:45;27.00;98.10
15409;DHT22;7803;48.130;13.788;2022-07-23T12:52:47;27.00;98.10
15409;DHT22;7803;48.130;13.788;2022-07-23T12:55:53;27.00;98.20
15409;DHT22;7803;48.130;13.788;2022-07-23T12:59:05;27.00;98.10
15409;DHT22;7803;48.130;13.788;2022-07-23T13:02:10;27.00;98.10
15409;DHT22;7803;48.130;13.788;2022-07-23T13:05:13;27.00;98.10
15409;DHT22;7803;48.130;13.788;2022-07-23T13:08:15;27.00;98.00
15409;DHT22;7803;48.130;13.788;2022-07-23T13:11:17;27.00;98.00
15409;DHT22;7803;48.130;13.788;2022-07-23T13:14:20;27.00;98.00
15409;DHT22;7803;48.130;13.788;2022-07-23T13:17:23;27.00;98.40
15409;DHT22;7803;48.130;13.788;2022-07-23T13:20:26;27.00;98.00
15409;DHT22;7803;48.130;13.788;2022-07-23T13:23:28;27.00;98.00
15409;DHT22;7803;48.130;13.788;2022-07-23T13:26:30;27.00;98.10
15409;DHT22;7803;48.130;13.788;2022-07-23T13:29:32;27.00;98.20
15409;DHT22;7803;48.130;13.788;2022-07-23T13:32:34;27.00;98.20
15409;DHT22;7803;48.130;13.788;2022-07-23T13:35:38;27.00;98.20
15409;DHT22;7803;48.130;13.788;2022-07-23T13:38:39;27.00;98.20
15409;DHT22;7803;48.130;13.788;2022-07-23T13:41:42;27.00;98.20
15409;DHT22;7803;48.130;13.788;2022-07-23T13:44:44;27.00;98.20
15409;DHT22;7803;48.130;13.788;2022-07-23T13:47:46;27.00;98.10
15409;DHT22;7803;48.130;13.788;2022-07-23T13:50:50;27.00;98.10
15409;DHT22;7803;48.130;13.788;2022-07-23T13:53:52;27.00;98.10
15409;DHT22;7803;48.130;13.788;2022-07-23T13:56:55;27.00;98.10
15409;DHT22;7803;48.130;13.788;2022-07-23T13:59:58;27.00;98.00
15409;DHT22;7803;48.130;13.788;2022-07-23T14:03:00;27.00;98.00
15409;DHT22;7803;48.130;13.788;2022-07-23T14:06:04;27.00;98.00
15409;DHT22;7803;48.130;13.788;2022-07-23T14:09:06;27.00;98.10
15409;DHT22;7803;48.130;13.788;2022-07-23T14:12:09;27.00;98.20
15409;DHT22;7803;48.130;13.788;2022-07-23T14:15:11;27.00;98.20
15409;DHT22;7803;48.130;13.788;2022-07-23T14:18:13;27.00;98.20
15409;DHT22;7803;48.130;13.788;2022-07-23T14:21:17;27.00;98.20
15409;DHT22;7803;48.130;13.788;2022-07-23T14:24:19;27.00;98.20
15409;DHT22;7803;48.130;13.788;2022-07-23T14:27:20;27.00;98.20
15409;DHT22;7803;48.130;13.788;2022-07-23T14:30:23;27.00;98.20
15409;DHT22;7803;48.130;13.788;2022-07-23T14:33:25;27.10;98.20
15409;DHT22;7803;48.130;13.788;2022-07-23T14:36:28;27.00;98.10
15409;DHT22;7803;48.130;13.788;2022-07-23T14:39:30;27.00;98.10
15409;DHT22;7803;48.130;13.788;2022-07-23T14:42:32;27.00;98.10
15409;DHT22;7803;48.130;13.788;2022-07-23T14:45:34;27.10;98.10
15409;DHT22;7803;48.130;13.788;2022-07-23T14:48:36;27.00;98.10
15409;DHT22;7803;48.130;13.788;2022-07-23T14:51:40;27.00;98.00
15409;DHT22;7803;48.130;13.788;2022-07-23T14:54:42;27.00;98.10
15409;DHT22;7803;48.130;13.788;2022-07-23T14:57:45;27.00;98.10
15409;DHT22;7803;48.130;13.788;2022-07-23T15:00:46;27.00;98.20
15409;DHT22;7803;48.130;13.788;2022-07-23T15:03:49;27.00;98.10
15409;DHT22;7803;48.130;13.788;2022-07-23T15:06:52;27.00;98.10
15409;DHT22;7803;48.130;13.788;2022-07-23T15:09:54;27.00;98.10
15409;DHT22;7803;48.130;13.788;2022-07-23T15:12:56;27.00;98.10
15409;DHT22;7803;48.130;13.788;2022-07-23T15:15:58;27.00;98.10
15409;DHT22;7803;48.130;13.788;2022-07-23T15:19:00;27.00;98.10
15409;DHT22;7803;48.130;13.788;2022-07-23T15:22:03;27.00;98.00
15409;DHT22;7803;48.130;13.788;2022-07-23T15:25:07;27.00;98.00
15409;DHT22;7803;48.130;13.788;2022-07-23T15:28:09;27.00;98.10
15409;DHT22;7803;48.130;13.788;2022-07-23T15:31:11;27.00;98.00
15409;DHT22;7803;48.130;13.788;2022-07-23T15:34:13;27.00;98.00
15409;DHT22;7803;48.130;13.788;2022-07-23T15:37:16;27.00;98.00
15409;DHT22;7803;48.130;13.788;2022-07-23T15:40:18;27.00;98.00
15409;DHT22;7803;48.130;13.788;2022-07-23T15:43:20;27.00;98.00
15409;DHT22;7803;48.130;13.788;2022-07-23T15:46:22;27.00;98.00
15409;DHT22;7803;48.130;13.788;2022-07-23T15:49:25;27.00;98.10
15409;DHT22;7803;48.130;13.788;2022-07-23T15:52:28;27.00;98.10
15409;DHT22;7803;48.130;13.788;2022-07-23T15:55:30;27.00;98.10
15409;DHT22;7803;48.130;13.788;2022-07-23T15:58:32;27.00;98.10
15409;DHT22;7803;48.130;13.788;2022-07-23T16:01:34;27.00;98.10
15409;DHT22;7803;48.130;13.788;2022-07-23T16:04:36;27.00;98.10
15409;DHT22;7803;48.130;13.788;2022-07-23T16:07:39;27.00;98.00
15409;DHT22;7803;48.130;13.788;2022-07-23T16:10:41;27.00;98.00
15409;DHT22;7803;48.130;13.788;2022-07-23T16:13:44;27.00;98.10
15409;DHT22;7803;48.130;13.788;2022-07-23T16:16:46;27.00;98.10
15409;DHT22;7803;48.130;13.788;2022-07-23T16:19:48;27.00;98.00
15409;DHT22;7803;48.130;13.788;2022-07-23T16:22:51;27.00;98.10
15409;DHT22;7803;48.130;13.788;2022-07-23T16:25:53;27.00;98.10
15409;DHT22;7803;48.130;13.788;2022-07-23T16:28:55;27.00;98.10
15409;DHT22;7803;48.130;13.788;2022-07-23T16:31:57;27.00;98.10
15409;DHT22;7803;48.130;13.788;2022-07-23T16:34:59;27.00;98.10
15409;DHT22;7803;48.130;13.788;2022-07-23T16:38:03;27.00;98.10
15409;DHT22;7803;48.130;13.788;2022-07-23T16:41:06;27.00;98.10
15409;DHT22;7803;48.130;13.788;2022-07-23T16:44:08;27.00;98.10
15409;DHT22;7803;48.130;13.788;2022-07-23T16:47:10;27.00;98.10
15409;DHT22;7803;48.130;13.788;2022-07-23T16:50:12;27.00;98.10
15409;DHT22;7803;48.130;13.788;2022-07-23T16:53:16;27.00;98.10
15409;DHT22;7803;48.130;13.788;2022-07-23T16:56:18;27.10;98.10
15409;DHT22;7803;48.130;13.788;2022-07-23T16:59:20;27.00;98.10
15409;DHT22;7803;48.130;13.788;2022-07-23T17:02:22;27.00;98.10
15409;DHT22;7803;48.130;13.788;2022-07-23T17:05:24;27.00;98.10
15409;DHT22;7803;48.130;13.788;2022-07-23T17:08:28;27.00;98.10
15409;DHT22;7803;48.130;13.788;2022-07-23T17:11:30;27.00;98.00
15409;DHT22;7803;48.130;13.788;2022-07-23T17:14:32;27.00;98.00
15409;DHT22;7803;48.130;13.788;2022-07-23T17:17:34;27.00;98.10
15409;DHT22;7803;48.130;13.788;2022-07-23T17:20:36;27.00;98.10
15409;DHT22;7803;48.130;13.788;2022-07-23T17:23:40;27.00;98.10
15409;DHT22;7803;48.130;13.788;2022-07-23T17:26:42;27.00;98.20
15409;DHT22;7803;48.130;13.788;2022-07-23T17:29:44;27.00;98.20
15409;DHT22;7803;48.130;13.788;2022-07-23T17:32:46;27.00;98.10
15409;DHT22;7803;48.130;13.788;2022-07-23T17:35:48;27.00;98.10
15409;DHT22;7803;48.130;13.788;2022-07-23T17:38:54;27.00;98.10
15409;DHT22;7803;48.130;13.788;2022-07-23T17:41:56;27.00;98.10
15409;DHT22;7803;48.130;13.788;2022-07-23T17:44:58;27.00;98.10
15409;DHT22;7803;48.130;13.788;2022-07-23T17:48:00;27.00;98.10
15409;DHT22;7803;48.130;13.788;2022-07-23T17:51:04;27.00;98.10
15409;DHT22;7803;48.130;13.788;2022-07-23T17:54:09;27.00;98.10
15409;DHT22;7803;48.130;13.788;2022-07-23T17:57:11;27.00;98.10
15409;DHT22;7803;48.130;13.788;2022-07-23T18:00:15;27.00;98.10
15409;DHT22;7803;48.130;13.788;2022-07-23T18:03:17;27.00;98.00
15409;DHT22;7803;48.130;13.788;2022-07-23T18:06:19;27.00;98.10
15409;DHT22;7803;48.130;13.788;2022-07-23T18:09:23;27.00;98.10
15409;DHT22;7803;48.130;13.788;2022-07-23T18:12:25;27.00;98.10
15409;DHT22;7803;48.130;13.788;2022-07-23T18:15:27;27.00;98.20
15409;DHT22;7803;48.130;13.788;2022-07-23T18:18:29;27.00;98.20
15409;DHT22;7803;48.130;13.788;2022-07-23T18:21:32;27.10;98.20
15409;DHT22;7803;48.130;13.788;2022-07-23T18:24:35;27.10;98.10
15409;DHT22;7803;48.130;13.788;2022-07-23T18:27:37;27.10;98.20
15409;DHT22;7803;48.130;13.788;2022-07-23T18:30:40;27.00;98.10
15409;DHT22;7803;48.130;13.788;2022-07-23T18:33:42;27.10;98.20
15409;DHT22;7803;48.130;13.788;2022-07-23T18:36:44;27.00;98.10
15409;DHT22;7803;48.130;13.788;2022-07-23T18:39:48;27.00;98.10
15409;DHT22;7803;48.130;13.788;2022-07-23T18:42:50;27.10;98.20
15409;DHT22;7803;48.130;13.788;2022-07-23T18:45:55;27.10;98.20
15409;DHT22;7803;48.130;13.788;2022-07-23T18:49:02;27.00;98.10
15409;DHT22;7803;48.130;13.788;2022-07-23T18:52:04;27.00;98.10
15409;DHT22;7803;48.130;13.788;2022-07-23T18:55:09;27.00;98.10
15409;DHT22;7803;48.130;13.788;2022-07-23T18:58:11;27.10;98.20
15409;DHT22;7803;48.130;13.788;2022-07-23T19:01:13;27.00;98.10
15409;DHT22;7803;48.130;13.788;2022-07-23T19:04:15;27.10;98.10
15409;DHT22;7803;48.130;13.788;2022-07-23T19:07:17;27.00;98.10
15409;DHT22;7803;48.130;13.788;2022-07-23T19:10:21;27.10;98.10
15409;DHT22;7803;48.130;13.788;2022-07-23T19:13:24;27.00;98.10
15409;DHT22;7803;48.130;13.788;2022-07-23T19:16:26;27.10;98.10
15409;DHT22;7803;48.130;13.788;2022-07-23T19:19:27;27.00;98.00
15409;DHT22;7803;48.130;13.788;2022-07-23T19:22:29;27.00;98.00
15409;DHT22;7803;48.130;13.788;2022-07-23T19:25:33;27.10;98.10
15409;DHT22;7803;48.130;13.788;2022-07-23T19:28:35;27.00;98.00
15409;DHT22;7803;48.130;13.788;2022-07-23T19:31:37;27.00;98.00
15409;DHT22;7803;48.130;13.788;2022-07-23T19:34:39;27.00;98.00
15409;DHT22;7803;48.130;13.788;2022-07-23T19:37:42;27.10;98.50
15409;DHT22;7803;48.130;13.788;2022-07-23T19:40:45;27.00;98.00
15409;DHT22;7803;48.130;13.788;2022-07-23T19:43:47;27.10;98.10
15409;DHT22;7803;48.130;13.788;2022-07-23T19:46:49;27.10;98.10
15409;DHT22;7803;48.130;13.788;2022-07-23T19:49:52;27.00;98.10
15409;DHT22;7803;48.130;13.788;2022-07-23T19:52:54;27.00;98.10
15409;DHT22;7803;48.130;13.788;2022-07-23T19:55:58;27.00;98.10
15409;DHT22;7803;48.130;13.788;2022-07-23T19:59:00;27.00;98.10
15409;DHT22;7803;48.130;13.788;2022-07-23T20:02:02;27.00;98.00
15409;DHT22;7803;48.130;13.788;2022-07-23T20:05:05;27.00;98.00
15409;DHT22;7803;48.130;13.788;2022-07-23T20:08:07;27.00;98.00
15409;DHT22;7803;48.130;13.788;2022-07-23T20:11:10;27.10;98.10
15409;DHT22;7803;48.130;13.788;2022-07-23T20:14:12;27.10;98.10
15409;DHT22;7803;48.130;13.788;2022-07-23T20:17:14;27.00;98.00
15409;DHT22;7803;48.130;13.788;2022-07-23T20:20:16;27.00;98.00
15409;DHT22;7803;48.130;13.788;2022-07-23T20:23:18;27.10;98.10
15409;DHT22;7803;48.130;13.788;2022-07-23T20:26:21;27.10;98.10
15409;DHT22;7803;48.130;13.788;2022-07-23T20:29:23;27.00;98.00
15409;DHT22;7803;48.130;13.788;2022-07-23T20:32:25;27.00;98.00
15409;DHT22;7803;48.130;13.788;2022-07-23T20:35:27;27.10;98.10
15409;DHT22;7803;48.130;13.788;2022-07-23T20:38:29;27.10;98.10
15409;DHT22;7803;48.130;13.788;2022-07-23T20:41:34;27.10;98.10
15409;DHT22;7803;48.130;13.788;2022-07-23T20:44:36;27.00;98.00
15409;DHT22;7803;48.130;13.788;2022-07-23T20:47:38;27.10;98.10
15409;DHT22;7803;48.130;13.788;2022-07-23T20:50:41;27.00;98.00
15409;DHT22;7803;48.130;13.788;2022-07-23T20:53:45;27.00;98.00
15409;DHT22;7803;48.130;13.788;2022-07-23T20:56:48;27.00;98.00
15409;DHT22;7803;48.130;13.788;2022-07-23T20:59:50;27.10;98.00
15409;DHT22;7803;48.130;13.788;2022-07-23T21:02:52;27.00;98.00
15409;DHT22;7803;48.130;13.788;2022-07-23T21:05:54;27.00;98.00
15409;DHT22;7803;48.130;13.788;2022-07-23T21:08:56;27.00;98.00
15409;DHT22;7803;48.130;13.788;2022-07-23T21:12:00;27.00;98.00
15409;DHT22;7803;48.130;13.788;2022-07-23T21:15:02;27.10;98.00
15409;DHT22;7803;48.130;13.788;2022-07-23T21:18:05;27.10;98.10
15409;DHT22;7803;48.130;13.788;2022-07-23T21:21:07;27.10;98.10
15409;DHT22;7803;48.130;13.788;2022-07-23T21:24:09;27.10;98.00
15409;DHT22;7803;48.130;13.788;2022-07-23T21:27:13;27.10;98.00
15409;DHT22;7803;48.130;13.788;2022-07-23T21:30:15;27.00;98.00
15409;DHT22;7803;48.130;13.788;2022-07-23T21:33:17;27.10;98.00
15409;DHT22;7803;48.130;13.788;2022-07-23T21:36:19;27.10;98.00
15409;DHT22;7803;48.130;13.788;2022-07-23T21:39:21;27.00;97.90
15409;DHT22;7803;48.130;13.788;2022-07-23T21:42:25;27.10;98.00
15409;DHT22;7803;48.130;13.788;2022-07-23T21:45:27;27.10;98.40
15409;DHT22;7803;48.130;13.788;2022-07-23T21:48:29;27.00;97.90
15409;DHT22;7803;48.130;13.788;2022-07-23T21:51:31;27.00;97.90
15409;DHT22;7803;48.130;13.788;2022-07-23T21:54:33;27.00;98.00
15409;DHT22;7803;48.130;13.788;2022-07-23T21:57:38;27.00;98.00
15409;DHT22;7803;48.130;13.788;2022-07-23T22:00:40;27.00;98.00
15409;DHT22;7803;48.130;13.788;2022-07-23T22:03:44;27.00;98.00
15409;DHT22;7803;48.130;13.788;2022-07-23T22:06:46;27.10;98.00
15409;DHT22;7803;48.130;13.788;2022-07-23T22:09:48;27.10;98.00
15409;DHT22;7803;48.130;13.788;2022-07-23T22:12:51;27.00;98.00
15409;DHT22;7803;48.130;13.788;2022-07-23T22:15:53;27.10;98.00
15409;DHT22;7803;48.130;13.788;2022-07-23T22:18:55;27.10;98.00
15409;DHT22;7803;48.130;13.788;2022-07-23T22:21:57;27.00;98.00
15409;DHT22;7803;48.130;13.788;2022-07-23T22:24:59;27.00;98.00
15409;DHT22;7803;48.130;13.788;2022-07-23T22:28:03;27.10;98.00
15409;DHT22;7803;48.130;13.788;2022-07-23T22:31:05;27.00;97.90
15409;DHT22;7803;48.130;13.788;2022-07-23T22:34:07;27.00;97.90
15409;DHT22;7803;48.130;13.788;2022-07-23T22:37:09;27.00;97.90
15409;DHT22;7803;48.130;13.788;2022-07-23T22:40:12;27.10;98.00
15409;DHT22;7803;48.130;13.788;2022-07-23T22:43:16;27.00;98.00
15409;DHT22;7803;48.130;13.788;2022-07-23T22:46:18;27.10;98.00
15409;DHT22;7803;48.130;13.788;2022-07-23T22:49:20;27.00;98.00
15409;DHT22;7803;48.130;13.788;2022-07-23T22:52:22;27.00;98.00
15409;DHT22;7803;48.130;13.788;2022-07-23T22:55:24;27.10;98.00
15409;DHT22;7803;48.130;13.788;2022-07-23T22:58:27;27.00;98.00
15409;DHT22;7803;48.130;13.788;2022-07-23T23:01:30;27.00;98.00
15409;DHT22;7803;48.130;13.788;2022-07-23T23:04:32;27.00;98.00
15409;DHT22;7803;48.130;13.788;2022-07-23T23:07:34;27.00;98.00
15409;DHT22;7803;48.130;13.788;2022-07-23T23:10:36;27.00;98.00
15409;DHT22;7803;48.130;13.788;2022-07-23T23:13:39;27.10;98.00
15409;DHT22;7803;48.130;13.788;2022-07-23T23:16:41;27.10;98.00
15409;DHT22;7803;48.130;13.788;2022-07-23T23:19:43;27.00;97.90
15409;DHT22;7803;48.130;13.788;2022-07-23T23:22:45;27.10;98.00
15409;DHT22;7803;48.130;13.788;2022-07-23T23:25:47;27.00;98.00
15409;DHT22;7803;48.130;13.788;2022-07-23T23:28:51;27.00;98.00
15409;DHT22;7803;48.130;13.788;2022-07-23T23:31:53;27.10;98.00
15409;DHT22;7803;48.130;13.788;2022-07-23T23:34:57;27.10;98.00
15409;DHT22;7803;48.130;13.788;2022-07-23T23:37:59;27.10;98.00
15409;DHT22;7803;48.130;13.788;2022-07-23T23:41:01;27.00;98.00
15409;DHT22;7803;48.130;13.788;2022-07-23T23:44:04;27.00;98.00
15409;DHT22;7803;48.130;13.788;2022-07-23T23:47:06;27.00;98.00
15409;DHT22;7803;48.130;13.788;2022-07-23T23:50:09;27.00;98.00
15409;DHT22;7803;48.130;13.788;2022-07-23T23:53:11;27.00;98.00
15409;DHT22;7803;48.130;13.788;2022-07-23T23:56:13;27.10;98.00
15409;DHT22;7803;48.130;13.788;2022-07-23T23:59:16;27.00;98.00
